CheckWX is a tool to help pilots better visualize weather data.  It is not intended as a substitute for an official pre-flight weather briefing.

13:19:02 UTC

EBBR TAF
Brussels Airport
Brussels, Belgium
TAF EBBR 181101Z 1812/1918 24010KT 9999 SCT008 BKN012 BECMG 1812/1814 SCT012 BKN020 PROB30 TEMPO 1912/1915 SHRA

Aug-18@
12:00 UTC

Aug-18 @ 12:00 UTC

Aug-19@
18:00 UTC

Aug-19 @ 18:00 UTC

TAF EBBR 181101Z 1812/1918 24010KT 9999 SCT008 BKN012
Wind
  • 240° at 10 KTS
Cloud Levels
  • Scattered at 800' AGL
  • Broken at 1,200' AGL

Aug-18@
12:00 UTC

Aug-18 @ 12:00 UTC

Aug-19@
18:00 UTC

Aug-19 @ 18:00 UTC

BECMG 1812/1814 SCT012 BKN020

Becoming

Becoming Conditions expected by Sun, Aug 18, 2019 @ 14:00 UTC

Wind
  • 240° at 10 KTS
Cloud Levels
  • Scattered at 1,200' AGL
  • Broken at 2,000' AGL

Aug-19@
12:00 UTC

Aug-19 @ 12:00 UTC

Aug-19@
15:00 UTC

Aug-19 @ 15:00 UTC

PROB30 TEMPO 1912/1915 SHRA

Temporary - 30% Likelihood

Temporary - 30% Likelihood during this time.

Conditions
Rain